Flight Track Log - Related Links

Times and Time Zones

All times are in EDT time to prevent confusion due to time zone crossing. See the ASH3732 flight status page for this flight to view local times or setup timezone preferences in your user account.

Time Position Orientation Groundspeed Altitude Reporting Facility
EDT Latitude Longitude Course Direction KTS MPH feet Rate Location/Type
Sun 06:12:19 AM 35.8989 -78.7767 17° North 167 192 1,300  Level Washington Center
Sun 06:13:28 AM 35.9619 -78.7511 18° North 221 254 3,600 1,940 Climbing Washington Center
Sun 06:14:32 AM 36.0275 -78.7253 18° North 255 293 5,600 2,160 Climbing Washington Center
Sun 06:15:00 AM 36.2672 -78.6331 18° North  Level FlightAware Approximate
Sun 06:15:33 AM 36.1075 -78.7003 14° North 270 311 8,100  Level Washington Center
Sun 06:16:00 AM 36.3676 -78.5956 11° North  Level FlightAware Approximate
Sun 06:16:30 AM 36.1958 -78.6678 17° North 292 336 11,200  Level Washington Center
Sun 06:17:00 AM 36.4698 -78.5655 17° North  Level FlightAware Approximate
Sun 06:17:31 AM 36.2694 -78.6422 16° North 302 348 13,400  Level Washington Center
Sun 06:18:30 AM 36.3686 -78.5972 20° North 329 379 14,300 1,240 Climbing Washington Center
Sun 06:19:32 AM 36.4556 -78.5489 24° Northeast 345 397 15,900 1,561 Climbing Washington Center
Sun 06:20:33 AM 36.5508 -78.4878 27° Northeast 363 418 17,500 1,412 Climbing Washington Center
Sun 06:21:31 AM 36.6483 -78.4292 26° Northeast 374 430 18,700 1,450 Climbing Washington Center
Sun 06:22:33 AM 36.7542 -78.3606 27° Northeast 379 436 20,400 1,400 Climbing Washington Center
Sun 06:23:31 AM 36.8558 -78.2942 28° Northeast 389 448 21,500 807 Climbing Washington Center
Sun 06:24:32 AM 36.9361 -78.2450 26° Northeast 394 453 22,000 248 Climbing Washington Center
Sun 06:25:32 AM 37.0611 -78.1658 27° Northeast 404 465 22,000  Level Washington Center
Sun 06:26:30 AM 37.1667 -78.0992 27° Northeast 416 479 22,000  Level Washington Center
Sun 06:27:30 AM 37.2744 -78.0294 27° Northeast 421 484 22,000  Level Washington Center
Sun 06:28:33 AM 37.3864 -77.9600 26° Northeast 426 490 22,000 -195 Level Washington Center
Sun 06:29:33 AM 37.4942 -77.8900 27° Northeast 431 496 21,600 -1,282 Descending Washington Center
Sun 06:30:30 AM 37.5956 -77.8275 26° Northeast 425 489 19,500 -1,881 Descending Washington Center
Sun 06:31:31 AM 37.6969 -77.7597 28° Northeast 413 475 17,900 -1,800 Descending Washington Center
Sun 06:32:30 AM 37.7961 -77.6967 27° Northeast 408 470 15,900 -2,000 Descending Washington Center
Sun 06:33:31 AM 37.8972 -77.6311 27° Northeast 408 470 13,900 -2,000 Descending Washington Center
Sun 06:34:30 AM 37.9922 -77.5653 29° Northeast 398 458 11,900 -1,884 Descending Washington Center
Sun 06:35:32 AM 38.0869 -77.5097 25° Northeast 386 444 10,100 -934 Descending Washington Center
Sun 06:36:32 AM 38.1669 -77.4589 27° Northeast 351 404 10,000 -50 Descending Washington Center
Sun 06:37:32 AM 38.2408 -77.4106 27° Northeast 313 360 10,000 -248 Level Washington Center
Sun 06:38:33 AM 38.3144 -77.3672 25° Northeast 296 341 9,500 -1,169 Descending Washington Center
Sun 06:39:30 AM 38.3958 -77.3561 North 291 335 7,700 -1,765 Descending Washington Center
Sun 06:40:32 AM 38.4814 -77.3606 358° North 286 329 6,000 -1,328 Descending Washington Center
Sun 06:41:32 AM 38.5542 -77.3650 357° North 292 336 5,000 -706 Descending Washington Center
Sun 06:42:31 AM 38.6314 -77.3642 360° North 281 323 4,600 -496 Descending Washington Center
Sun 06:43:33 AM 38.7086 -77.3608 North 276 318 4,000 -214 Descending Washington Center
Sun 06:44:51 AM 38.8333 -77.3500 North 280 322 4,100 43 Climbing Potomac TRACON
Sun 06:45:51 AM 38.9000 -77.3500 360° North 281 323 4,100 -150 Level Potomac TRACON
Sun 06:46:51 AM 38.9833 -77.3500 360° North 282 325 3,800 -500 Descending Potomac TRACON
Sun 06:47:51 AM 39.0500 -77.3500 360° North 276 318 3,100 -347 Descending Potomac TRACON
Sun 06:48:52 AM 39.1333 -77.3500 360° North 277 319 3,100 -261 Level Potomac TRACON
Sun 06:49:46 AM 39.2000 -77.3667 349° North 260 299 2,600 -263 Descending Potomac TRACON
Sun 06:50:46 AM 39.1667 -77.4167 229° Southwest 209 241 2,600  Level Potomac TRACON
Sun 06:51:40 AM 39.1167 -77.4333 195° South 173 199 2,600  Level Potomac TRACON

Login

Don't have an account? Register now (free) for customized features, flight alerts, and more!